sensor_id;sensor_type;location;lat;lon;timestamp;P1;durP1;ratioP1;P2;durP2;ratioP2
9467;SDS011;4772;52.382;9.752;2023-04-01T00:00:50;5.03;;;1.60;;
9467;SDS011;4772;52.382;9.752;2023-04-01T00:03:17;5.00;;;1.70;;
9467;SDS011;4772;52.382;9.752;2023-04-01T00:05:43;6.43;;;1.70;;
9467;SDS011;4772;52.382;9.752;2023-04-01T00:08:09;4.50;;;1.67;;
9467;SDS011;4772;52.382;9.752;2023-04-01T00:10:35;5.90;;;2.13;;
9467;SDS011;4772;52.382;9.752;2023-04-01T00:13:01;4.87;;;1.80;;
9467;SDS011;4772;52.382;9.752;2023-04-01T00:15:27;5.03;;;1.53;;
9467;SDS011;4772;52.382;9.752;2023-04-01T00:17:53;4.13;;;1.70;;
9467;SDS011;4772;52.382;9.752;2023-04-01T00:20:19;4.37;;;1.70;;
9467;SDS011;4772;52.382;9.752;2023-04-01T00:22:45;3.37;;;1.50;;
9467;SDS011;4772;52.382;9.752;2023-04-01T00:25:11;4.67;;;1.80;;
9467;SDS011;4772;52.382;9.752;2023-04-01T00:27:37;4.73;;;1.77;;
9467;SDS011;4772;52.382;9.752;2023-04-01T00:30:03;3.37;;;1.60;;
9467;SDS011;4772;52.382;9.752;2023-04-01T00:32:29;3.90;;;2.00;;
9467;SDS011;4772;52.382;9.752;2023-04-01T00:34:56;4.40;;;1.80;;
9467;SDS011;4772;52.382;9.752;2023-04-01T00:37:24;4.03;;;1.70;;
9467;SDS011;4772;52.382;9.752;2023-04-01T00:39:50;4.50;;;1.87;;
9467;SDS011;4772;52.382;9.752;2023-04-01T00:42:16;5.33;;;1.73;;
9467;SDS011;4772;52.382;9.752;2023-04-01T00:44:44;4.60;;;1.50;;
9467;SDS011;4772;52.382;9.752;2023-04-01T00:47:11;5.80;;;1.60;;
9467;SDS011;4772;52.382;9.752;2023-04-01T00:49:38;3.97;;;1.47;;
9467;SDS011;4772;52.382;9.752;2023-04-01T00:52:05;7.43;;;1.63;;
9467;SDS011;4772;52.382;9.752;2023-04-01T00:54:32;6.07;;;1.57;;
9467;SDS011;4772;52.382;9.752;2023-04-01T00:57:08;4.33;;;1.50;;
9467;SDS011;4772;52.382;9.752;2023-04-01T00:59:37;2.00;;;1.20;;
9467;SDS011;4772;52.382;9.752;2023-04-01T01:02:05;1.83;;;1.10;;
9467;SDS011;4772;52.382;9.752;2023-04-01T01:04:33;4.60;;;1.47;;
9467;SDS011;4772;52.382;9.752;2023-04-01T01:12:14;3.80;;;1.50;;
9467;SDS011;4772;52.382;9.752;2023-04-01T01:22:25;3.30;;;1.23;;
9467;SDS011;4772;52.382;9.752;2023-04-01T01:24:58;1.63;;;1.07;;
9467;SDS011;4772;52.382;9.752;2023-04-01T01:27:30;2.43;;;0.97;;
9467;SDS011;4772;52.382;9.752;2023-04-01T01:37:18;1.73;;;1.40;;
9467;SDS011;4772;52.382;9.752;2023-04-01T01:39:47;3.33;;;1.17;;
9467;SDS011;4772;52.382;9.752;2023-04-01T01:42:15;3.23;;;1.27;;
9467;SDS011;4772;52.382;9.752;2023-04-01T01:44:41;1.40;;;1.03;;
9467;SDS011;4772;52.382;9.752;2023-04-01T01:47:08;3.83;;;1.30;;
9467;SDS011;4772;52.382;9.752;2023-04-01T01:49:35;3.77;;;1.37;;
9467;SDS011;4772;52.382;9.752;2023-04-01T01:52:02;5.83;;;1.37;;
9467;SDS011;4772;52.382;9.752;2023-04-01T01:54:28;2.03;;;1.20;;
9467;SDS011;4772;52.382;9.752;2023-04-01T01:56:56;2.67;;;1.33;;
9467;SDS011;4772;52.382;9.752;2023-04-01T01:59:25;3.30;;;1.47;;
9467;SDS011;4772;52.382;9.752;2023-04-01T02:01:52;3.30;;;1.10;;
9467;SDS011;4772;52.382;9.752;2023-04-01T02:04:19;4.27;;;1.43;;
9467;SDS011;4772;52.382;9.752;2023-04-01T02:09:43;2.90;;;1.10;;
9467;SDS011;4772;52.382;9.752;2023-04-01T02:12:10;2.37;;;1.30;;
9467;SDS011;4772;52.382;9.752;2023-04-01T02:14:52;1.77;;;1.00;;
9467;SDS011;4772;52.382;9.752;2023-04-01T02:17:22;5.07;;;1.30;;
9467;SDS011;4772;52.382;9.752;2023-04-01T02:22:21;3.13;;;1.17;;
9467;SDS011;4772;52.382;9.752;2023-04-01T02:24:48;2.33;;;1.37;;
9467;SDS011;4772;52.382;9.752;2023-04-01T02:27:14;3.77;;;1.30;;
9467;SDS011;4772;52.382;9.752;2023-04-01T02:29:40;3.47;;;1.30;;
9467;SDS011;4772;52.382;9.752;2023-04-01T02:32:07;2.17;;;1.10;;
9467;SDS011;4772;52.382;9.752;2023-04-01T02:34:34;3.87;;;1.13;;
9467;SDS011;4772;52.382;9.752;2023-04-01T02:37:00;3.23;;;1.27;;
9467;SDS011;4772;52.382;9.752;2023-04-01T02:39:26;4.03;;;1.53;;
9467;SDS011;4772;52.382;9.752;2023-04-01T02:41:53;4.70;;;1.27;;
9467;SDS011;4772;52.382;9.752;2023-04-01T02:44:19;3.10;;;1.17;;
9467;SDS011;4772;52.382;9.752;2023-04-01T02:46:45;1.60;;;1.10;;
9467;SDS011;4772;52.382;9.752;2023-04-01T02:49:11;1.97;;;1.20;;
9467;SDS011;4772;52.382;9.752;2023-04-01T02:51:37;1.43;;;1.07;;
9467;SDS011;4772;52.382;9.752;2023-04-01T02:54:03;2.97;;;1.20;;
9467;SDS011;4772;52.382;9.752;2023-04-01T02:56:29;2.07;;;1.30;;
9467;SDS011;4772;52.382;9.752;2023-04-01T02:58:55;1.20;;;1.10;;
9467;SDS011;4772;52.382;9.752;2023-04-01T03:01:21;2.27;;;1.10;;
9467;SDS011;4772;52.382;9.752;2023-04-01T03:03:47;1.87;;;1.20;;
9467;SDS011;4772;52.382;9.752;2023-04-01T03:06:14;3.23;;;1.17;;
9467;SDS011;4772;52.382;9.752;2023-04-01T03:08:40;3.10;;;1.23;;
9467;SDS011;4772;52.382;9.752;2023-04-01T03:11:07;1.73;;;1.10;;
9467;SDS011;4772;52.382;9.752;2023-04-01T03:13:33;2.43;;;1.10;;
9467;SDS011;4772;52.382;9.752;2023-04-01T03:15:59;4.13;;;1.27;;
9467;SDS011;4772;52.382;9.752;2023-04-01T03:18:25;2.23;;;1.20;;
9467;SDS011;4772;52.382;9.752;2023-04-01T03:20:51;1.87;;;1.10;;
9467;SDS011;4772;52.382;9.752;2023-04-01T03:23:17;4.03;;;1.40;;
9467;SDS011;4772;52.382;9.752;2023-04-01T03:25:45;2.20;;;1.17;;
9467;SDS011;4772;52.382;9.752;2023-04-01T03:28:11;3.77;;;1.00;;
9467;SDS011;4772;52.382;9.752;2023-04-01T03:30:40;1.73;;;1.10;;
9467;SDS011;4772;52.382;9.752;2023-04-01T03:33:06;2.47;;;1.00;;
9467;SDS011;4772;52.382;9.752;2023-04-01T03:35:32;2.33;;;1.40;;
9467;SDS011;4772;52.382;9.752;2023-04-01T03:38:00;2.63;;;1.30;;
9467;SDS011;4772;52.382;9.752;2023-04-01T03:40:26;2.37;;;1.10;;
9467;SDS011;4772;52.382;9.752;2023-04-01T03:42:52;2.67;;;1.27;;
9467;SDS011;4772;52.382;9.752;2023-04-01T03:45:18;3.33;;;1.37;;
9467;SDS011;4772;52.382;9.752;2023-04-01T03:47:44;1.77;;;0.90;;
9467;SDS011;4772;52.382;9.752;2023-04-01T03:50:10;3.50;;;1.30;;
9467;SDS011;4772;52.382;9.752;2023-04-01T03:52:36;6.60;;;1.40;;
9467;SDS011;4772;52.382;9.752;2023-04-01T03:55:02;4.40;;;1.30;;
9467;SDS011;4772;52.382;9.752;2023-04-01T03:57:30;2.63;;;1.37;;
9467;SDS011;4772;52.382;9.752;2023-04-01T03:59:56;2.00;;;1.30;;
9467;SDS011;4772;52.382;9.752;2023-04-01T04:02:22;3.47;;;1.30;;
9467;SDS011;4772;52.382;9.752;2023-04-01T04:04:48;3.80;;;1.50;;
9467;SDS011;4772;52.382;9.752;2023-04-01T04:07:14;3.60;;;1.50;;
9467;SDS011;4772;52.382;9.752;2023-04-01T04:09:40;2.57;;;1.27;;
9467;SDS011;4772;52.382;9.752;2023-04-01T04:12:06;2.20;;;1.20;;
9467;SDS011;4772;52.382;9.752;2023-04-01T04:14:32;3.03;;;1.30;;
9467;SDS011;4772;52.382;9.752;2023-04-01T04:16:58;2.73;;;1.20;;
9467;SDS011;4772;52.382;9.752;2023-04-01T04:19:24;4.20;;;1.20;;
9467;SDS011;4772;52.382;9.752;2023-04-01T04:21:50;1.70;;;1.20;;
9467;SDS011;4772;52.382;9.752;2023-04-01T04:24:16;1.30;;;1.20;;
9467;SDS011;4772;52.382;9.752;2023-04-01T04:26:42;3.07;;;1.30;;
9467;SDS011;4772;52.382;9.752;2023-04-01T04:29:08;1.97;;;1.20;;
9467;SDS011;4772;52.382;9.752;2023-04-01T04:31:34;5.33;;;1.50;;
9467;SDS011;4772;52.382;9.752;2023-04-01T04:34:00;3.43;;;1.20;;
9467;SDS011;4772;52.382;9.752;2023-04-01T04:36:26;2.87;;;1.30;;
9467;SDS011;4772;52.382;9.752;2023-04-01T04:38:52;1.73;;;1.20;;
9467;SDS011;4772;52.382;9.752;2023-04-01T04:41:18;2.27;;;1.40;;
9467;SDS011;4772;52.382;9.752;2023-04-01T04:43:53;2.47;;;1.30;;
9467;SDS011;4772;52.382;9.752;2023-04-01T04:46:19;3.90;;;1.53;;
9467;SDS011;4772;52.382;9.752;2023-04-01T04:48:45;5.73;;;1.70;;
9467;SDS011;4772;52.382;9.752;2023-04-01T04:51:18;4.07;;;1.50;;
9467;SDS011;4772;52.382;9.752;2023-04-01T04:53:44;7.07;;;1.80;;
9467;SDS011;4772;52.382;9.752;2023-04-01T04:56:10;2.50;;;1.37;;
9467;SDS011;4772;52.382;9.752;2023-04-01T04:58:37;5.77;;;1.77;;
9467;SDS011;4772;52.382;9.752;2023-04-01T05:01:09;2.77;;;1.50;;
9467;SDS011;4772;52.382;9.752;2023-04-01T05:03:36;5.03;;;1.57;;
9467;SDS011;4772;52.382;9.752;2023-04-01T05:06:02;2.27;;;1.53;;
9467;SDS011;4772;52.382;9.752;2023-04-01T05:08:28;2.30;;;1.73;;
9467;SDS011;4772;52.382;9.752;2023-04-01T05:10:54;3.23;;;1.60;;
9467;SDS011;4772;52.382;9.752;2023-04-01T05:13:20;2.90;;;1.50;;
9467;SDS011;4772;52.382;9.752;2023-04-01T05:15:46;4.00;;;1.73;;
9467;SDS011;4772;52.382;9.752;2023-04-01T05:18:12;4.70;;;1.57;;
9467;SDS011;4772;52.382;9.752;2023-04-01T05:20:38;4.20;;;1.70;;
9467;SDS011;4772;52.382;9.752;2023-04-01T05:23:04;4.67;;;1.73;;
9467;SDS011;4772;52.382;9.752;2023-04-01T05:25:30;2.23;;;1.60;;
9467;SDS011;4772;52.382;9.752;2023-04-01T05:27:56;2.90;;;1.60;;
9467;SDS011;4772;52.382;9.752;2023-04-01T05:30:23;4.03;;;1.63;;
9467;SDS011;4772;52.382;9.752;2023-04-01T05:32:49;2.70;;;1.20;;
9467;SDS011;4772;52.382;9.752;2023-04-01T05:35:15;3.60;;;1.50;;
9467;SDS011;4772;52.382;9.752;2023-04-01T05:37:41;2.23;;;1.17;;
9467;SDS011;4772;52.382;9.752;2023-04-01T05:40:07;2.43;;;1.43;;
9467;SDS011;4772;52.382;9.752;2023-04-01T05:42:33;4.30;;;1.43;;
9467;SDS011;4772;52.382;9.752;2023-04-01T05:44:59;2.60;;;1.37;;
9467;SDS011;4772;52.382;9.752;2023-04-01T05:47:25;4.43;;;1.33;;
9467;SDS011;4772;52.382;9.752;2023-04-01T05:49:51;2.80;;;1.60;;
9467;SDS011;4772;52.382;9.752;2023-04-01T05:52:17;2.10;;;1.37;;
9467;SDS011;4772;52.382;9.752;2023-04-01T05:54:43;2.60;;;1.40;;
9467;SDS011;4772;52.382;9.752;2023-04-01T05:57:09;3.97;;;1.50;;
9467;SDS011;4772;52.382;9.752;2023-04-01T05:59:35;1.73;;;1.30;;
9467;SDS011;4772;52.382;9.752;2023-04-01T06:02:01;2.60;;;1.27;;
9467;SDS011;4772;52.382;9.752;2023-04-01T06:04:28;2.50;;;1.40;;
9467;SDS011;4772;52.382;9.752;2023-04-01T06:06:58;2.33;;;1.20;;
9467;SDS011;4772;52.382;9.752;2023-04-01T06:09:26;3.57;;;1.30;;
9467;SDS011;4772;52.382;9.752;2023-04-01T06:32:39;2.20;;;1.20;;
9467;SDS011;4772;52.382;9.752;2023-04-01T06:35:11;2.13;;;1.20;;
9467;SDS011;4772;52.382;9.752;2023-04-01T06:50:37;2.80;;;1.30;;
9467;SDS011;4772;52.382;9.752;2023-04-01T06:53:11;2.40;;;1.40;;
9467;SDS011;4772;52.382;9.752;2023-04-01T06:55:41;2.97;;;1.30;;
9467;SDS011;4772;52.382;9.752;2023-04-01T06:59:09;2.50;;;1.43;;
9467;SDS011;4772;52.382;9.752;2023-04-01T07:01:03;2.27;;;1.37;;
9467;SDS011;4772;52.382;9.752;2023-04-01T07:03:36;3.00;;;1.30;;
9467;SDS011;4772;52.382;9.752;2023-04-01T07:06:05;2.77;;;1.47;;
9467;SDS011;4772;52.382;9.752;2023-04-01T07:08:34;2.07;;;1.30;;
9467;SDS011;4772;52.382;9.752;2023-04-01T07:11:04;2.67;;;1.30;;
9467;SDS011;4772;52.382;9.752;2023-04-01T07:18:31;1.97;;;1.30;;
9467;SDS011;4772;52.382;9.752;2023-04-01T07:20:58;2.67;;;1.40;;
9467;SDS011;4772;52.382;9.752;2023-04-01T07:23:26;2.47;;;1.50;;
9467;SDS011;4772;52.382;9.752;2023-04-01T07:25:58;3.17;;;1.47;;
9467;SDS011;4772;52.382;9.752;2023-04-01T07:28:26;4.10;;;1.20;;
9467;SDS011;4772;52.382;9.752;2023-04-01T07:31:13;1.77;;;1.40;;
9467;SDS011;4772;52.382;9.752;2023-04-01T07:46:13;2.70;;;1.27;;
9467;SDS011;4772;52.382;9.752;2023-04-01T08:04:07;2.90;;;1.30;;
9467;SDS011;4772;52.382;9.752;2023-04-01T08:12:21;1.67;;;1.00;;
9467;SDS011;4772;52.382;9.752;2023-04-01T08:15:06;1.93;;;1.10;;
9467;SDS011;4772;52.382;9.752;2023-04-01T08:23:06;2.50;;;1.20;;
9467;SDS011;4772;52.382;9.752;2023-04-01T08:25:33;2.53;;;1.17;;
9467;SDS011;4772;52.382;9.752;2023-04-01T08:28:00;0.93;;;0.83;;
9467;SDS011;4772;52.382;9.752;2023-04-01T08:32:56;1.43;;;0.80;;
9467;SDS011;4772;52.382;9.752;2023-04-01T08:35:26;1.90;;;1.20;;
9467;SDS011;4772;52.382;9.752;2023-04-01T08:37:56;3.17;;;0.77;;
9467;SDS011;4772;52.382;9.752;2023-04-01T08:56:14;1.13;;;0.87;;
9467;SDS011;4772;52.382;9.752;2023-04-01T09:01:25;1.70;;;0.90;;
9467;SDS011;4772;52.382;9.752;2023-04-01T09:03:56;1.20;;;0.80;;
9467;SDS011;4772;52.382;9.752;2023-04-01T09:06:40;0.77;;;0.77;;
9467;SDS011;4772;52.382;9.752;2023-04-01T09:10:11;1.53;;;0.83;;
9467;SDS011;4772;52.382;9.752;2023-04-01T09:20:24;1.00;;;0.70;;
9467;SDS011;4772;52.382;9.752;2023-04-01T09:23:10;3.03;;;0.80;;
9467;SDS011;4772;52.382;9.752;2023-04-01T09:28:13;1.20;;;0.80;;
9467;SDS011;4772;52.382;9.752;2023-04-01T09:35:56;2.03;;;1.10;;
9467;SDS011;4772;52.382;9.752;2023-04-01T09:38:49;1.73;;;0.80;;
9467;SDS011;4772;52.382;9.752;2023-04-01T09:41:34;3.50;;;1.03;;
9467;SDS011;4772;52.382;9.752;2023-04-01T09:52:10;0.70;;;0.70;;
9467;SDS011;4772;52.382;9.752;2023-04-01T09:54:45;0.73;;;0.73;;
9467;SDS011;4772;52.382;9.752;2023-04-01T10:10:54;0.77;;;0.77;;
9467;SDS011;4772;52.382;9.752;2023-04-01T10:31:53;1.43;;;0.70;;
9467;SDS011;4772;52.382;9.752;2023-04-01T10:34:53;0.80;;;0.80;;
9467;SDS011;4772;52.382;9.752;2023-04-01T10:38:05;1.57;;;0.70;;
9467;SDS011;4772;52.382;9.752;2023-04-01T10:45:30;2.10;;;0.80;;
9467;SDS011;4772;52.382;9.752;2023-04-01T10:50:53;1.27;;;0.80;;
9467;SDS011;4772;52.382;9.752;2023-04-01T10:53:43;0.73;;;0.70;;
9467;SDS011;4772;52.382;9.752;2023-04-01T11:09:40;1.47;;;0.83;;
9467;SDS011;4772;52.382;9.752;2023-04-01T11:20:21;1.70;;;0.73;;
9467;SDS011;4772;52.382;9.752;2023-04-01T11:22:51;0.90;;;0.80;;
9467;SDS011;4772;52.382;9.752;2023-04-01T11:31:23;1.43;;;0.80;;
9467;SDS011;4772;52.382;9.752;2023-04-01T11:36:07;0.80;;;0.80;;
9467;SDS011;4772;52.382;9.752;2023-04-01T11:41:15;1.10;;;0.80;;
9467;SDS011;4772;52.382;9.752;2023-04-01T11:44:03;1.23;;;0.90;;
9467;SDS011;4772;52.382;9.752;2023-04-01T11:46:36;0.90;;;0.90;;
9467;SDS011;4772;52.382;9.752;2023-04-01T11:54:23;2.27;;;0.70;;
9467;SDS011;4772;52.382;9.752;2023-04-01T11:56:58;0.70;;;0.70;;
9467;SDS011;4772;52.382;9.752;2023-04-01T12:01:58;2.40;;;1.67;;
9467;SDS011;4772;52.382;9.752;2023-04-01T12:04:27;1.37;;;0.80;;
9467;SDS011;4772;52.382;9.752;2023-04-01T12:09:30;1.30;;;1.00;;
9467;SDS011;4772;52.382;9.752;2023-04-01T12:22:46;0.93;;;0.80;;
9467;SDS011;4772;52.382;9.752;2023-04-01T12:35:16;1.17;;;0.90;;
9467;SDS011;4772;52.382;9.752;2023-04-01T12:40:28;1.10;;;0.80;;
9467;SDS011;4772;52.382;9.752;2023-04-01T12:45:27;1.00;;;0.70;;
9467;SDS011;4772;52.382;9.752;2023-04-01T12:55:38;1.23;;;0.70;;
9467;SDS011;4772;52.382;9.752;2023-04-01T13:06:22;2.23;;;1.07;;
9467;SDS011;4772;52.382;9.752;2023-04-01T13:11:47;1.60;;;1.03;;
9467;SDS011;4772;52.382;9.752;2023-04-01T13:17:03;0.80;;;0.80;;
9467;SDS011;4772;52.382;9.752;2023-04-01T13:19:37;0.80;;;0.70;;
9467;SDS011;4772;52.382;9.752;2023-04-01T13:32:54;2.30;;;0.77;;
9467;SDS011;4772;52.382;9.752;2023-04-01T13:35:31;2.77;;;1.00;;
9467;SDS011;4772;52.382;9.752;2023-04-01T13:38:13;0.87;;;0.87;;
9467;SDS011;4772;52.382;9.752;2023-04-01T13:40:49;1.93;;;0.80;;
9467;SDS011;4772;52.382;9.752;2023-04-01T13:46:03;0.73;;;0.70;;
9467;SDS011;4772;52.382;9.752;2023-04-01T14:01:48;1.10;;;1.10;;
9467;SDS011;4772;52.382;9.752;2023-04-01T14:07:49;1.40;;;1.27;;
9467;SDS011;4772;52.382;9.752;2023-04-01T14:09:44;1.30;;;1.20;;
9467;SDS011;4772;52.382;9.752;2023-04-01T14:15:14;1.47;;;1.37;;
9467;SDS011;4772;52.382;9.752;2023-04-01T14:18:09;1.07;;;1.03;;
9467;SDS011;4772;52.382;9.752;2023-04-01T14:20:38;1.52;;;1.42;;
9467;SDS011;4772;52.382;9.752;2023-04-01T14:28:18;1.67;;;1.37;;
9467;SDS011;4772;52.382;9.752;2023-04-01T14:43:47;2.80;;;1.53;;
9467;SDS011;4772;52.382;9.752;2023-04-01T14:51:35;1.30;;;1.20;;
9467;SDS011;4772;52.382;9.752;2023-04-01T14:56:46;2.60;;;1.30;;
9467;SDS011;4772;52.382;9.752;2023-04-01T15:02:02;2.23;;;1.40;;
9467;SDS011;4772;52.382;9.752;2023-04-01T15:04:46;1.43;;;1.00;;
9467;SDS011;4772;52.382;9.752;2023-04-01T15:15:29;1.20;;;1.10;;
9467;SDS011;4772;52.382;9.752;2023-04-01T15:18:09;1.73;;;1.33;;
9467;SDS011;4772;52.382;9.752;2023-04-01T15:23:25;1.70;;;1.40;;
9467;SDS011;4772;52.382;9.752;2023-04-01T15:26:09;2.03;;;1.20;;
9467;SDS011;4772;52.382;9.752;2023-04-01T15:39:09;2.43;;;1.47;;
9467;SDS011;4772;52.382;9.752;2023-04-01T15:41:50;2.13;;;1.23;;
9467;SDS011;4772;52.382;9.752;2023-04-01T16:23:29;1.20;;;1.20;;
9467;SDS011;4772;52.382;9.752;2023-04-01T16:26:05;4.70;;;1.40;;
9467;SDS011;4772;52.382;9.752;2023-04-01T16:28:34;1.43;;;1.33;;
9467;SDS011;4772;52.382;9.752;2023-04-01T16:31:06;1.93;;;1.57;;
9467;SDS011;4772;52.382;9.752;2023-04-01T16:33:40;1.60;;;1.50;;
9467;SDS011;4772;52.382;9.752;2023-04-01T16:36:24;1.40;;;1.30;;
9467;SDS011;4772;52.382;9.752;2023-04-01T16:38:55;2.00;;;1.43;;
9467;SDS011;4772;52.382;9.752;2023-04-01T16:41:34;2.33;;;1.40;;
9467;SDS011;4772;52.382;9.752;2023-04-01T16:44:44;9.80;;;1.50;;
9467;SDS011;4772;52.382;9.752;2023-04-01T16:49:48;1.57;;;1.47;;
9467;SDS011;4772;52.382;9.752;2023-04-01T16:52:34;1.57;;;1.47;;
9467;SDS011;4772;52.382;9.752;2023-04-01T16:55:03;2.47;;;1.30;;
9467;SDS011;4772;52.382;9.752;2023-04-01T16:57:36;1.90;;;1.50;;
9467;SDS011;4772;52.382;9.752;2023-04-01T17:00:24;2.00;;;1.80;;
9467;SDS011;4772;52.382;9.752;2023-04-01T17:02:52;2.50;;;1.60;;
9467;SDS011;4772;52.382;9.752;2023-04-01T17:05:33;1.97;;;1.57;;
9467;SDS011;4772;52.382;9.752;2023-04-01T17:15:39;1.70;;;1.60;;
9467;SDS011;4772;52.382;9.752;2023-04-01T17:34:18;1.67;;;1.57;;
9467;SDS011;4772;52.382;9.752;2023-04-01T17:37:05;2.20;;;2.00;;
9467;SDS011;4772;52.382;9.752;2023-04-01T17:42:16;2.00;;;1.65;;
9467;SDS011;4772;52.382;9.752;2023-04-01T17:44:59;2.17;;;1.70;;
9467;SDS011;4772;52.382;9.752;2023-04-01T17:52:58;1.80;;;1.60;;
9467;SDS011;4772;52.382;9.752;2023-04-01T18:03:24;5.60;;;2.00;;
9467;SDS011;4772;52.382;9.752;2023-04-01T18:06:04;12.13;;;6.43;;
9467;SDS011;4772;52.382;9.752;2023-04-01T18:11:12;2.47;;;1.77;;
9467;SDS011;4772;52.382;9.752;2023-04-01T18:26:38;2.90;;;2.40;;
9467;SDS011;4772;52.382;9.752;2023-04-01T18:29:24;2.43;;;2.23;;
9467;SDS011;4772;52.382;9.752;2023-04-01T18:31:54;7.00;;;4.50;;
9467;SDS011;4772;52.382;9.752;2023-04-01T18:37:19;1.87;;;1.77;;
9467;SDS011;4772;52.382;9.752;2023-04-01T18:40:10;2.33;;;1.97;;
9467;SDS011;4772;52.382;9.752;2023-04-01T18:50:41;2.87;;;2.00;;
9467;SDS011;4772;52.382;9.752;2023-04-01T18:53:30;2.80;;;1.90;;
9467;SDS011;4772;52.382;9.752;2023-04-01T18:56:23;2.20;;;2.00;;
9467;SDS011;4772;52.382;9.752;2023-04-01T19:01:14;1.87;;;1.70;;
9467;SDS011;4772;52.382;9.752;2023-04-01T19:08:45;2.40;;;2.20;;
9467;SDS011;4772;52.382;9.752;2023-04-01T19:21:28;3.50;;;2.30;;
9467;SDS011;4772;52.382;9.752;2023-04-01T19:27:31;2.77;;;2.27;;
9467;SDS011;4772;52.382;9.752;2023-04-01T19:34:45;4.63;;;2.60;;
9467;SDS011;4772;52.382;9.752;2023-04-01T19:37:25;3.77;;;2.80;;
9467;SDS011;4772;52.382;9.752;2023-04-01T19:42:30;3.33;;;2.40;;
9467;SDS011;4772;52.382;9.752;2023-04-01T19:45:11;3.00;;;2.70;;
9467;SDS011;4772;52.382;9.752;2023-04-01T19:48:05;4.43;;;2.67;;
9467;SDS011;4772;52.382;9.752;2023-04-01T19:50:38;3.47;;;2.50;;
9467;SDS011;4772;52.382;9.752;2023-04-01T19:53:10;2.67;;;2.47;;
9467;SDS011;4772;52.382;9.752;2023-04-01T19:55:39;3.13;;;2.73;;
9467;SDS011;4772;52.382;9.752;2023-04-01T19:58:19;3.37;;;2.50;;
9467;SDS011;4772;52.382;9.752;2023-04-01T20:00:53;6.40;;;3.23;;
9467;SDS011;4772;52.382;9.752;2023-04-01T20:11:12;2.50;;;2.30;;
9467;SDS011;4772;52.382;9.752;2023-04-01T20:13:43;2.90;;;2.40;;
9467;SDS011;4772;52.382;9.752;2023-04-01T20:16:11;2.83;;;2.33;;
9467;SDS011;4772;52.382;9.752;2023-04-01T20:23:38;10.97;;;4.80;;
9467;SDS011;4772;52.382;9.752;2023-04-01T20:26:11;4.70;;;3.00;;
9467;SDS011;4772;52.382;9.752;2023-04-01T20:28:54;2.87;;;2.50;;
9467;SDS011;4772;52.382;9.752;2023-04-01T20:31:36;3.97;;;3.00;;
9467;SDS011;4772;52.382;9.752;2023-04-01T20:51:54;5.77;;;3.70;;
9467;SDS011;4772;52.382;9.752;2023-04-01T20:54:28;5.37;;;3.93;;
9467;SDS011;4772;52.382;9.752;2023-04-01T21:07:20;4.97;;;4.47;;
9467;SDS011;4772;52.382;9.752;2023-04-01T21:17:36;9.83;;;5.13;;
9467;SDS011;4772;52.382;9.752;2023-04-01T21:20:10;8.40;;;5.33;;
9467;SDS011;4772;52.382;9.752;2023-04-01T21:22:44;6.77;;;4.33;;
9467;SDS011;4772;52.382;9.752;2023-04-01T21:33:00;5.50;;;4.60;;
9467;SDS011;4772;52.382;9.752;2023-04-01T21:35:49;7.60;;;4.17;;
9467;SDS011;4772;52.382;9.752;2023-04-01T21:38:28;6.97;;;4.67;;
9467;SDS011;4772;52.382;9.752;2023-04-01T21:41:10;5.53;;;4.60;;
9467;SDS011;4772;52.382;9.752;2023-04-01T21:43:48;6.83;;;4.23;;
9467;SDS011;4772;52.382;9.752;2023-04-01T21:57:01;9.77;;;4.90;;
9467;SDS011;4772;52.382;9.752;2023-04-01T21:59:38;6.83;;;4.70;;
9467;SDS011;4772;52.382;9.752;2023-04-01T22:04:43;6.30;;;4.77;;
9467;SDS011;4772;52.382;9.752;2023-04-01T22:07:14;6.07;;;4.87;;
9467;SDS011;4772;52.382;9.752;2023-04-01T22:09:45;7.33;;;4.53;;
9467;SDS011;4772;52.382;9.752;2023-04-01T22:12:15;6.20;;;4.67;;
9467;SDS011;4772;52.382;9.752;2023-04-01T22:17:30;6.57;;;4.80;;
9467;SDS011;4772;52.382;9.752;2023-04-01T22:25:19;7.73;;;4.57;;
9467;SDS011;4772;52.382;9.752;2023-04-01T22:27:50;8.23;;;4.20;;
9467;SDS011;4772;52.382;9.752;2023-04-01T22:32:57;6.33;;;4.40;;
9467;SDS011;4772;52.382;9.752;2023-04-01T22:35:34;8.07;;;4.77;;
9467;SDS011;4772;52.382;9.752;2023-04-01T22:40:39;7.50;;;4.87;;
9467;SDS011;4772;52.382;9.752;2023-04-01T22:43:09;7.93;;;4.67;;
9467;SDS011;4772;52.382;9.752;2023-04-01T22:48:23;7.37;;;4.90;;
9467;SDS011;4772;52.382;9.752;2023-04-01T22:50:56;9.80;;;5.20;;
9467;SDS011;4772;52.382;9.752;2023-04-01T22:55:59;7.13;;;4.73;;
9467;SDS011;4772;52.382;9.752;2023-04-01T22:58:30;7.40;;;4.70;;
9467;SDS011;4772;52.382;9.752;2023-04-01T23:01:01;5.80;;;5.20;;
9467;SDS011;4772;52.382;9.752;2023-04-01T23:03:31;9.53;;;4.60;;
9467;SDS011;4772;52.382;9.752;2023-04-01T23:05:59;6.57;;;5.27;;
9467;SDS011;4772;52.382;9.752;2023-04-01T23:08:48;8.67;;;5.43;;
9467;SDS011;4772;52.382;9.752;2023-04-01T23:11:21;20.67;;;12.07;;
9467;SDS011;4772;52.382;9.752;2023-04-01T23:13:52;13.57;;;6.03;;
9467;SDS011;4772;52.382;9.752;2023-04-01T23:16:25;10.87;;;6.27;;
9467;SDS011;4772;52.382;9.752;2023-04-01T23:24:04;8.27;;;5.17;;
9467;SDS011;4772;52.382;9.752;2023-04-01T23:26:39;7.40;;;5.03;;
9467;SDS011;4772;52.382;9.752;2023-04-01T23:29:11;14.37;;;5.47;;
9467;SDS011;4772;52.382;9.752;2023-04-01T23:31:39;9.17;;;5.47;;
9467;SDS011;4772;52.382;9.752;2023-04-01T23:36:42;8.57;;;5.40;;
9467;SDS011;4772;52.382;9.752;2023-04-01T23:39:51;11.43;;;4.73;;
9467;SDS011;4772;52.382;9.752;2023-04-01T23:42:04;10.50;;;5.67;;
9467;SDS011;4772;52.382;9.752;2023-04-01T23:44:31;7.17;;;4.20;;
9467;SDS011;4772;52.382;9.752;2023-04-01T23:46:58;6.10;;;4.63;;
9467;SDS011;4772;52.382;9.752;2023-04-01T23:49:28;5.37;;;4.27;;
9467;SDS011;4772;52.382;9.752;2023-04-01T23:51:57;8.07;;;4.30;;
9467;SDS011;4772;52.382;9.752;2023-04-01T23:54:29;6.67;;;4.63;;
9467;SDS011;4772;52.382;9.752;2023-04-01T23:56:56;6.17;;;4.00;;
9467;SDS011;4772;52.382;9.752;2023-04-01T23:59:23;6.43;;;4.00;;
